sensor_id;sensor_type;location;lat;lon;timestamp;temperature;humidity
17728;DHT22;8984;49.268;12.302;2023-05-02T00:02:06;11.80;99.90
17728;DHT22;8984;49.268;12.302;2023-05-02T00:04:36;11.80;99.90
17728;DHT22;8984;49.268;12.302;2023-05-02T00:07:04;11.70;99.90
17728;DHT22;8984;49.268;12.302;2023-05-02T00:09:32;11.70;99.90
17728;DHT22;8984;49.268;12.302;2023-05-02T00:12:03;11.60;99.90
17728;DHT22;8984;49.268;12.302;2023-05-02T00:14:45;11.60;99.90
17728;DHT22;8984;49.268;12.302;2023-05-02T00:17:16;11.50;99.90
17728;DHT22;8984;49.268;12.302;2023-05-02T00:19:44;11.50;99.90
17728;DHT22;8984;49.268;12.302;2023-05-02T00:22:38;11.40;99.90
17728;DHT22;8984;49.268;12.302;2023-05-02T00:25:08;11.40;99.90
17728;DHT22;8984;49.268;12.302;2023-05-02T00:27:42;11.40;99.90
17728;DHT22;8984;49.268;12.302;2023-05-02T00:30:15;11.30;99.90
17728;DHT22;8984;49.268;12.302;2023-05-02T00:32:46;11.20;99.90
17728;DHT22;8984;49.268;12.302;2023-05-02T00:35:14;11.20;99.90
17728;DHT22;8984;49.268;12.302;2023-05-02T00:37:50;11.30;99.90
17728;DHT22;8984;49.268;12.302;2023-05-02T00:40:27;11.10;99.90
17728;DHT22;8984;49.268;12.302;2023-05-02T00:42:54;11.00;99.90
17728;DHT22;8984;49.268;12.302;2023-05-02T00:45:28;10.90;99.90
17728;DHT22;8984;49.268;12.302;2023-05-02T00:47:57;10.90;99.90
17728;DHT22;8984;49.268;12.302;2023-05-02T00:50:41;10.90;99.90
17728;DHT22;8984;49.268;12.302;2023-05-02T00:53:10;10.80;99.90
17728;DHT22;8984;49.268;12.302;2023-05-02T00:55:38;10.80;99.90
17728;DHT22;8984;49.268;12.302;2023-05-02T00:58:10;10.80;99.90
17728;DHT22;8984;49.268;12.302;2023-05-02T01:00:53;10.80;99.90
17728;DHT22;8984;49.268;12.302;2023-05-02T01:03:33;10.80;99.90
17728;DHT22;8984;49.268;12.302;2023-05-02T01:06:23;10.80;99.90
17728;DHT22;8984;49.268;12.302;2023-05-02T01:09:11;10.90;99.90
17728;DHT22;8984;49.268;12.302;2023-05-02T01:11:51;10.80;99.90
17728;DHT22;8984;49.268;12.302;2023-05-02T01:14:34;10.80;99.90
17728;DHT22;8984;49.268;12.302;2023-05-02T01:17:13;10.70;99.90
17728;DHT22;8984;49.268;12.302;2023-05-02T01:19:45;10.60;99.90
17728;DHT22;8984;49.268;12.302;2023-05-02T01:22:14;10.60;99.90
17728;DHT22;8984;49.268;12.302;2023-05-02T01:24:51;10.50;99.90
17728;DHT22;8984;49.268;12.302;2023-05-02T01:27:27;10.50;99.90
17728;DHT22;8984;49.268;12.302;2023-05-02T01:30:07;10.50;99.90
17728;DHT22;8984;49.268;12.302;2023-05-02T01:33:05;10.50;99.90
17728;DHT22;8984;49.268;12.302;2023-05-02T01:35:39;10.50;99.90
17728;DHT22;8984;49.268;12.302;2023-05-02T01:38:18;10.50;99.90
17728;DHT22;8984;49.268;12.302;2023-05-02T01:40:57;10.40;99.90
17728;DHT22;8984;49.268;12.302;2023-05-02T01:43:29;10.40;99.90
17728;DHT22;8984;49.268;12.302;2023-05-02T01:46:04;10.40;99.90
17728;DHT22;8984;49.268;12.302;2023-05-02T01:48:38;10.30;99.90
17728;DHT22;8984;49.268;12.302;2023-05-02T01:51:07;10.30;99.90
17728;DHT22;8984;49.268;12.302;2023-05-02T01:53:37;10.30;99.90
17728;DHT22;8984;49.268;12.302;2023-05-02T01:56:09;10.30;99.90
17728;DHT22;8984;49.268;12.302;2023-05-02T01:58:40;10.30;99.90
17728;DHT22;8984;49.268;12.302;2023-05-02T02:01:13;10.30;99.90
17728;DHT22;8984;49.268;12.302;2023-05-02T02:03:44;10.10;99.90
17728;DHT22;8984;49.268;12.302;2023-05-02T02:06:21;10.10;99.90
17728;DHT22;8984;49.268;12.302;2023-05-02T02:08:49;10.10;99.90
17728;DHT22;8984;49.268;12.302;2023-05-02T02:11:28;10.00;99.90
17728;DHT22;8984;49.268;12.302;2023-05-02T02:14:18;10.00;99.90
17728;DHT22;8984;49.268;12.302;2023-05-02T02:17:00;9.90;99.90
17728;DHT22;8984;49.268;12.302;2023-05-02T02:19:41;9.90;99.90
17728;DHT22;8984;49.268;12.302;2023-05-02T02:22:12;9.80;99.90
17728;DHT22;8984;49.268;12.302;2023-05-02T02:24:48;9.80;99.90
17728;DHT22;8984;49.268;12.302;2023-05-02T02:27:16;9.70;99.90
17728;DHT22;8984;49.268;12.302;2023-05-02T02:29:46;9.70;99.90
17728;DHT22;8984;49.268;12.302;2023-05-02T02:32:17;9.70;99.90
17728;DHT22;8984;49.268;12.302;2023-05-02T02:34:46;9.70;99.90
17728;DHT22;8984;49.268;12.302;2023-05-02T02:37:20;9.80;99.90
17728;DHT22;8984;49.268;12.302;2023-05-02T02:39:59;9.70;99.90
17728;DHT22;8984;49.268;12.302;2023-05-02T02:42:35;9.70;99.90
17728;DHT22;8984;49.268;12.302;2023-05-02T02:45:15;9.60;99.90
17728;DHT22;8984;49.268;12.302;2023-05-02T02:47:59;9.60;99.90
17728;DHT22;8984;49.268;12.302;2023-05-02T02:50:31;9.60;99.90
17728;DHT22;8984;49.268;12.302;2023-05-02T02:53:14;9.50;99.90
17728;DHT22;8984;49.268;12.302;2023-05-02T02:56:01;9.50;99.90
17728;DHT22;8984;49.268;12.302;2023-05-02T02:58:42;9.40;99.90
17728;DHT22;8984;49.268;12.302;2023-05-02T03:01:17;9.30;99.90
17728;DHT22;8984;49.268;12.302;2023-05-02T03:04:01;9.30;99.90
17728;DHT22;8984;49.268;12.302;2023-05-02T03:06:38;9.20;99.90
17728;DHT22;8984;49.268;12.302;2023-05-02T03:09:14;9.20;99.90
17728;DHT22;8984;49.268;12.302;2023-05-02T03:11:44;9.10;99.90
17728;DHT22;8984;49.268;12.302;2023-05-02T03:14:14;9.10;99.90
17728;DHT22;8984;49.268;12.302;2023-05-02T03:16:42;9.00;99.90
17728;DHT22;8984;49.268;12.302;2023-05-02T03:19:13;9.10;99.90
17728;DHT22;8984;49.268;12.302;2023-05-02T03:21:40;9.10;99.90
17728;DHT22;8984;49.268;12.302;2023-05-02T03:24:08;9.10;99.90
17728;DHT22;8984;49.268;12.302;2023-05-02T03:26:38;9.00;99.90
17728;DHT22;8984;49.268;12.302;2023-05-02T03:29:07;9.00;99.90
17728;DHT22;8984;49.268;12.302;2023-05-02T03:31:44;8.90;99.90
17728;DHT22;8984;49.268;12.302;2023-05-02T03:34:19;8.90;99.90
17728;DHT22;8984;49.268;12.302;2023-05-02T03:36:51;8.90;99.90
17728;DHT22;8984;49.268;12.302;2023-05-02T03:39:19;8.90;99.90
17728;DHT22;8984;49.268;12.302;2023-05-02T03:41:52;8.90;99.90
17728;DHT22;8984;49.268;12.302;2023-05-02T03:44:20;8.90;99.90
17728;DHT22;8984;49.268;12.302;2023-05-02T03:46:50;8.90;99.90
17728;DHT22;8984;49.268;12.302;2023-05-02T03:49:21;8.90;99.90
17728;DHT22;8984;49.268;12.302;2023-05-02T03:52:02;8.90;99.90
17728;DHT22;8984;49.268;12.302;2023-05-02T03:54:43;8.90;99.90
17728;DHT22;8984;49.268;12.302;2023-05-02T03:57:11;8.90;99.90
17728;DHT22;8984;49.268;12.302;2023-05-02T03:59:46;8.80;99.90
17728;DHT22;8984;49.268;12.302;2023-05-02T04:02:15;8.80;99.90
17728;DHT22;8984;49.268;12.302;2023-05-02T04:04:44;8.80;99.90
17728;DHT22;8984;49.268;12.302;2023-05-02T04:07:13;8.80;99.90
17728;DHT22;8984;49.268;12.302;2023-05-02T04:09:47;8.90;99.90
17728;DHT22;8984;49.268;12.302;2023-05-02T04:12:20;9.00;99.90
17728;DHT22;8984;49.268;12.302;2023-05-02T04:15:03;9.10;99.90
17728;DHT22;8984;49.268;12.302;2023-05-02T04:17:35;9.10;99.90
17728;DHT22;8984;49.268;12.302;2023-05-02T04:20:09;9.10;99.90
17728;DHT22;8984;49.268;12.302;2023-05-02T04:22:42;9.20;99.90
17728;DHT22;8984;49.268;12.302;2023-05-02T04:25:09;9.20;99.90
17728;DHT22;8984;49.268;12.302;2023-05-02T04:27:37;9.30;99.90
17728;DHT22;8984;49.268;12.302;2023-05-02T04:30:10;9.30;99.90
17728;DHT22;8984;49.268;12.302;2023-05-02T04:32:39;9.30;99.90
17728;DHT22;8984;49.268;12.302;2023-05-02T04:35:14;9.30;99.90
17728;DHT22;8984;49.268;12.302;2023-05-02T04:37:54;9.40;99.90
17728;DHT22;8984;49.268;12.302;2023-05-02T04:40:24;9.40;99.90
17728;DHT22;8984;49.268;12.302;2023-05-02T04:42:52;9.50;99.90
17728;DHT22;8984;49.268;12.302;2023-05-02T04:45:25;9.50;99.90
17728;DHT22;8984;49.268;12.302;2023-05-02T04:47:56;9.60;99.90
17728;DHT22;8984;49.268;12.302;2023-05-02T04:50:34;9.70;99.90
17728;DHT22;8984;49.268;12.302;2023-05-02T04:53:04;9.60;99.90
17728;DHT22;8984;49.268;12.302;2023-05-02T04:55:33;9.60;99.90
17728;DHT22;8984;49.268;12.302;2023-05-02T04:58:03;9.70;99.90
17728;DHT22;8984;49.268;12.302;2023-05-02T05:00:30;9.80;99.90
17728;DHT22;8984;49.268;12.302;2023-05-02T05:03:02;9.90;99.90
17728;DHT22;8984;49.268;12.302;2023-05-02T05:05:32;10.00;99.90
17728;DHT22;8984;49.268;12.302;2023-05-02T05:08:01;10.10;99.90
17728;DHT22;8984;49.268;12.302;2023-05-02T05:10:33;10.20;99.90
17728;DHT22;8984;49.268;12.302;2023-05-02T05:13:05;10.30;99.90
17728;DHT22;8984;49.268;12.302;2023-05-02T05:15:33;10.40;99.90
17728;DHT22;8984;49.268;12.302;2023-05-02T05:18:02;10.40;99.90
17728;DHT22;8984;49.268;12.302;2023-05-02T05:23:23;10.40;99.90
17728;DHT22;8984;49.268;12.302;2023-05-02T05:25:53;10.60;99.90
17728;DHT22;8984;49.268;12.302;2023-05-02T05:28:21;10.70;99.90
17728;DHT22;8984;49.268;12.302;2023-05-02T05:30:49;10.70;99.90
17728;DHT22;8984;49.268;12.302;2023-05-02T05:33:20;10.80;99.90
17728;DHT22;8984;49.268;12.302;2023-05-02T05:35:47;10.70;99.90
17728;DHT22;8984;49.268;12.302;2023-05-02T05:38:20;10.70;99.90
17728;DHT22;8984;49.268;12.302;2023-05-02T05:40:55;10.80;99.90
17728;DHT22;8984;49.268;12.302;2023-05-02T05:43:25;10.90;99.90
17728;DHT22;8984;49.268;12.302;2023-05-02T05:45:53;11.10;99.90
17728;DHT22;8984;49.268;12.302;2023-05-02T05:48:27;11.10;99.90
17728;DHT22;8984;49.268;12.302;2023-05-02T05:50:54;11.30;99.90
17728;DHT22;8984;49.268;12.302;2023-05-02T05:53:28;11.40;99.90
17728;DHT22;8984;49.268;12.302;2023-05-02T05:55:58;11.30;99.90
17728;DHT22;8984;49.268;12.302;2023-05-02T05:58:27;11.40;99.90
17728;DHT22;8984;49.268;12.302;2023-05-02T06:01:02;11.50;99.90
17728;DHT22;8984;49.268;12.302;2023-05-02T06:03:39;11.60;99.90
17728;DHT22;8984;49.268;12.302;2023-05-02T06:06:13;11.60;99.90
17728;DHT22;8984;49.268;12.302;2023-05-02T06:08:52;11.70;99.90
17728;DHT22;8984;49.268;12.302;2023-05-02T06:11:20;11.90;99.90
17728;DHT22;8984;49.268;12.302;2023-05-02T06:13:48;12.00;99.90
17728;DHT22;8984;49.268;12.302;2023-05-02T06:16:17;12.20;99.90
17728;DHT22;8984;49.268;12.302;2023-05-02T06:18:50;12.40;99.90
17728;DHT22;8984;49.268;12.302;2023-05-02T06:21:33;12.50;99.90
17728;DHT22;8984;49.268;12.302;2023-05-02T06:24:08;12.60;99.90
17728;DHT22;8984;49.268;12.302;2023-05-02T06:26:40;12.70;99.90
17728;DHT22;8984;49.268;12.302;2023-05-02T06:29:09;12.80;99.90
17728;DHT22;8984;49.268;12.302;2023-05-02T06:31:39;12.90;99.90
17728;DHT22;8984;49.268;12.302;2023-05-02T06:34:22;13.10;99.90
17728;DHT22;8984;49.268;12.302;2023-05-02T06:36:54;13.20;99.90
17728;DHT22;8984;49.268;12.302;2023-05-02T06:39:28;13.30;99.90
17728;DHT22;8984;49.268;12.302;2023-05-02T06:41:58;13.50;99.90
17728;DHT22;8984;49.268;12.302;2023-05-02T06:44:29;13.60;99.90
17728;DHT22;8984;49.268;12.302;2023-05-02T06:46:58;13.70;99.90
17728;DHT22;8984;49.268;12.302;2023-05-02T06:49:32;13.80;99.90
17728;DHT22;8984;49.268;12.302;2023-05-02T06:52:00;13.80;99.90
17728;DHT22;8984;49.268;12.302;2023-05-02T06:54:33;14.00;99.90
17728;DHT22;8984;49.268;12.302;2023-05-02T06:57:03;14.20;99.90
17728;DHT22;8984;49.268;12.302;2023-05-02T06:59:30;14.30;99.90
17728;DHT22;8984;49.268;12.302;2023-05-02T07:01:58;14.40;99.90
17728;DHT22;8984;49.268;12.302;2023-05-02T07:04:35;14.40;99.90
17728;DHT22;8984;49.268;12.302;2023-05-02T07:07:05;14.50;99.90
17728;DHT22;8984;49.268;12.302;2023-05-02T07:09:34;14.50;99.90
17728;DHT22;8984;49.268;12.302;2023-05-02T07:12:04;14.70;99.90
17728;DHT22;8984;49.268;12.302;2023-05-02T07:14:42;14.80;99.90
17728;DHT22;8984;49.268;12.302;2023-05-02T07:17:35;14.80;99.90
17728;DHT22;8984;49.268;12.302;2023-05-02T07:20:04;15.00;99.90
17728;DHT22;8984;49.268;12.302;2023-05-02T07:22:35;15.10;99.90
17728;DHT22;8984;49.268;12.302;2023-05-02T07:25:21;15.10;99.90
17728;DHT22;8984;49.268;12.302;2023-05-02T07:27:53;15.00;99.90
17728;DHT22;8984;49.268;12.302;2023-05-02T07:30:28;14.90;99.90
17728;DHT22;8984;49.268;12.302;2023-05-02T07:33:07;15.20;99.90
17728;DHT22;8984;49.268;12.302;2023-05-02T07:35:35;15.30;99.90
17728;DHT22;8984;49.268;12.302;2023-05-02T07:38:04;15.50;99.90
17728;DHT22;8984;49.268;12.302;2023-05-02T07:40:39;15.70;99.90
17728;DHT22;8984;49.268;12.302;2023-05-02T07:43:07;15.90;99.90
17728;DHT22;8984;49.268;12.302;2023-05-02T07:45:36;16.00;99.90
17728;DHT22;8984;49.268;12.302;2023-05-02T07:48:06;16.10;99.90
17728;DHT22;8984;49.268;12.302;2023-05-02T07:50:34;16.30;99.90
17728;DHT22;8984;49.268;12.302;2023-05-02T07:53:15;16.50;99.90
17728;DHT22;8984;49.268;12.302;2023-05-02T07:56:05;16.70;99.90
17728;DHT22;8984;49.268;12.302;2023-05-02T07:58:34;16.80;99.90
17728;DHT22;8984;49.268;12.302;2023-05-02T08:01:03;16.90;99.90
17728;DHT22;8984;49.268;12.302;2023-05-02T08:03:35;16.80;99.90
17728;DHT22;8984;49.268;12.302;2023-05-02T08:06:04;16.80;99.90
17728;DHT22;8984;49.268;12.302;2023-05-02T08:08:32;16.90;99.90
17728;DHT22;8984;49.268;12.302;2023-05-02T08:11:01;17.00;99.90
17728;DHT22;8984;49.268;12.302;2023-05-02T08:13:31;17.10;99.90
17728;DHT22;8984;49.268;12.302;2023-05-02T08:16:03;17.20;99.90
17728;DHT22;8984;49.268;12.302;2023-05-02T08:18:32;17.20;99.90
17728;DHT22;8984;49.268;12.302;2023-05-02T08:21:07;17.10;99.90
17728;DHT22;8984;49.268;12.302;2023-05-02T08:23:36;17.00;99.90
17728;DHT22;8984;49.268;12.302;2023-05-02T08:26:08;17.10;99.90
17728;DHT22;8984;49.268;12.302;2023-05-02T08:28:45;17.10;99.90
17728;DHT22;8984;49.268;12.302;2023-05-02T08:31:13;17.20;99.90
17728;DHT22;8984;49.268;12.302;2023-05-02T08:33:42;17.00;99.90
17728;DHT22;8984;49.268;12.302;2023-05-02T08:36:10;16.80;99.90
17728;DHT22;8984;49.268;12.302;2023-05-02T08:38:41;17.00;99.90
17728;DHT22;8984;49.268;12.302;2023-05-02T08:41:12;17.00;99.90
17728;DHT22;8984;49.268;12.302;2023-05-02T08:43:46;17.10;99.90
17728;DHT22;8984;49.268;12.302;2023-05-02T08:46:29;17.20;99.90
17728;DHT22;8984;49.268;12.302;2023-05-02T08:48:58;17.20;99.90
17728;DHT22;8984;49.268;12.302;2023-05-02T08:51:38;17.30;99.90
17728;DHT22;8984;49.268;12.302;2023-05-02T08:54:09;17.50;99.90
17728;DHT22;8984;49.268;12.302;2023-05-02T08:56:50;17.30;99.90
17728;DHT22;8984;49.268;12.302;2023-05-02T08:59:45;17.60;99.90
17728;DHT22;8984;49.268;12.302;2023-05-02T09:02:23;17.80;99.90
17728;DHT22;8984;49.268;12.302;2023-05-02T09:04:59;17.80;99.90
17728;DHT22;8984;49.268;12.302;2023-05-02T09:07:28;17.80;99.90
17728;DHT22;8984;49.268;12.302;2023-05-02T09:10:03;17.70;99.90
17728;DHT22;8984;49.268;12.302;2023-05-02T09:12:31;17.90;99.90
17728;DHT22;8984;49.268;12.302;2023-05-02T09:15:10;18.00;99.90
17728;DHT22;8984;49.268;12.302;2023-05-02T09:17:45;17.70;99.90
17728;DHT22;8984;49.268;12.302;2023-05-02T09:20:13;17.70;99.90
17728;DHT22;8984;49.268;12.302;2023-05-02T09:22:50;18.00;99.90
17728;DHT22;8984;49.268;12.302;2023-05-02T09:25:19;18.20;99.90
17728;DHT22;8984;49.268;12.302;2023-05-02T09:28:01;18.30;99.90
17728;DHT22;8984;49.268;12.302;2023-05-02T09:30:31;18.10;99.90
17728;DHT22;8984;49.268;12.302;2023-05-02T09:32:59;18.30;99.90
17728;DHT22;8984;49.268;12.302;2023-05-02T09:35:27;18.40;99.90
17728;DHT22;8984;49.268;12.302;2023-05-02T09:38:18;18.50;99.90
17728;DHT22;8984;49.268;12.302;2023-05-02T09:40:53;18.60;99.90
17728;DHT22;8984;49.268;12.302;2023-05-02T09:43:25;18.80;99.90
17728;DHT22;8984;49.268;12.302;2023-05-02T09:46:08;18.80;99.90
17728;DHT22;8984;49.268;12.302;2023-05-02T09:48:53;18.50;99.90
17728;DHT22;8984;49.268;12.302;2023-05-02T09:51:23;18.60;99.90
17728;DHT22;8984;49.268;12.302;2023-05-02T09:53:59;18.80;99.90
17728;DHT22;8984;49.268;12.302;2023-05-02T09:56:27;18.30;99.90
17728;DHT22;8984;49.268;12.302;2023-05-02T09:59:17;18.50;99.90
17728;DHT22;8984;49.268;12.302;2023-05-02T10:02:09;18.70;99.90
17728;DHT22;8984;49.268;12.302;2023-05-02T10:04:42;18.80;99.90
17728;DHT22;8984;49.268;12.302;2023-05-02T10:07:17;18.80;99.90
17728;DHT22;8984;49.268;12.302;2023-05-02T10:09:53;18.70;99.90
17728;DHT22;8984;49.268;12.302;2023-05-02T10:12:26;18.90;99.90
17728;DHT22;8984;49.268;12.302;2023-05-02T10:15:03;18.80;99.90
17728;DHT22;8984;49.268;12.302;2023-05-02T10:17:43;18.70;99.90
17728;DHT22;8984;49.268;12.302;2023-05-02T10:20:36;18.60;99.90
17728;DHT22;8984;49.268;12.302;2023-05-02T10:23:08;18.70;99.90
17728;DHT22;8984;49.268;12.302;2023-05-02T10:25:36;18.60;99.90
17728;DHT22;8984;49.268;12.302;2023-05-02T10:28:15;18.60;99.90
17728;DHT22;8984;49.268;12.302;2023-05-02T10:30:54;18.50;99.90
17728;DHT22;8984;49.268;12.302;2023-05-02T10:33:30;18.40;99.90
17728;DHT22;8984;49.268;12.302;2023-05-02T10:36:04;18.50;99.90
17728;DHT22;8984;49.268;12.302;2023-05-02T10:38:46;18.50;99.90
17728;DHT22;8984;49.268;12.302;2023-05-02T10:41:21;18.50;99.90
17728;DHT22;8984;49.268;12.302;2023-05-02T10:44:03;18.40;99.90
17728;DHT22;8984;49.268;12.302;2023-05-02T10:46:40;18.40;99.90
17728;DHT22;8984;49.268;12.302;2023-05-02T10:49:15;18.40;99.90
17728;DHT22;8984;49.268;12.302;2023-05-02T10:51:56;18.30;99.90
17728;DHT22;8984;49.268;12.302;2023-05-02T10:54:31;18.40;99.90
17728;DHT22;8984;49.268;12.302;2023-05-02T10:57:08;18.20;99.90
17728;DHT22;8984;49.268;12.302;2023-05-02T10:59:42;18.20;99.90
17728;DHT22;8984;49.268;12.302;2023-05-02T11:05:22;18.20;99.90
17728;DHT22;8984;49.268;12.302;2023-05-02T11:14:50;18.30;99.90
17728;DHT22;8984;49.268;12.302;2023-05-02T11:18:04;18.40;99.90
17728;DHT22;8984;49.268;12.302;2023-05-02T11:20:33;18.50;99.90
17728;DHT22;8984;49.268;12.302;2023-05-02T11:23:19;18.50;99.90
17728;DHT22;8984;49.268;12.302;2023-05-02T11:25:54;18.70;99.90
17728;DHT22;8984;49.268;12.302;2023-05-02T11:28:41;18.40;99.90
17728;DHT22;8984;49.268;12.302;2023-05-02T11:31:54;18.50;99.90
17728;DHT22;8984;49.268;12.302;2023-05-02T11:34:43;18.60;99.90
17728;DHT22;8984;49.268;12.302;2023-05-02T11:37:19;18.50;99.90
17728;DHT22;8984;49.268;12.302;2023-05-02T11:39:46;18.30;99.90
17728;DHT22;8984;49.268;12.302;2023-05-02T11:42:33;18.50;99.90
17728;DHT22;8984;49.268;12.302;2023-05-02T11:45:12;18.70;99.90
17728;DHT22;8984;49.268;12.302;2023-05-02T11:47:42;18.50;99.90
17728;DHT22;8984;49.268;12.302;2023-05-02T11:50:16;18.60;99.90
17728;DHT22;8984;49.268;12.302;2023-05-02T11:52:47;18.60;99.90
17728;DHT22;8984;49.268;12.302;2023-05-02T11:55:44;18.80;99.90
17728;DHT22;8984;49.268;12.302;2023-05-02T11:58:13;18.90;99.90
17728;DHT22;8984;49.268;12.302;2023-05-02T12:00:45;18.90;99.90
17728;DHT22;8984;49.268;12.302;2023-05-02T12:03:26;19.00;99.90
17728;DHT22;8984;49.268;12.302;2023-05-02T12:06:22;19.10;99.90
17728;DHT22;8984;49.268;12.302;2023-05-02T12:08:51;19.40;99.90
17728;DHT22;8984;49.268;12.302;2023-05-02T12:11:33;19.60;99.90
17728;DHT22;8984;49.268;12.302;2023-05-02T12:14:10;19.80;99.90
17728;DHT22;8984;49.268;12.302;2023-05-02T12:16:40;20.00;99.90
17728;DHT22;8984;49.268;12.302;2023-05-02T12:19:08;20.10;99.90
17728;DHT22;8984;49.268;12.302;2023-05-02T12:21:41;20.40;99.90
17728;DHT22;8984;49.268;12.302;2023-05-02T12:24:11;20.30;99.90
17728;DHT22;8984;49.268;12.302;2023-05-02T12:26:42;20.10;99.90
17728;DHT22;8984;49.268;12.302;2023-05-02T12:29:10;20.20;99.90
17728;DHT22;8984;49.268;12.302;2023-05-02T12:31:51;20.30;99.90
17728;DHT22;8984;49.268;12.302;2023-05-02T12:34:32;20.60;99.90
17728;DHT22;8984;49.268;12.302;2023-05-02T12:37:05;20.80;99.90
17728;DHT22;8984;49.268;12.302;2023-05-02T12:39:42;20.90;99.90
17728;DHT22;8984;49.268;12.302;2023-05-02T12:42:11;21.10;99.90
17728;DHT22;8984;49.268;12.302;2023-05-02T12:44:41;21.00;99.90
17728;DHT22;8984;49.268;12.302;2023-05-02T12:47:11;21.50;99.90
17728;DHT22;8984;49.268;12.302;2023-05-02T12:50:10;21.70;99.90
17728;DHT22;8984;49.268;12.302;2023-05-02T12:52:58;21.20;99.90
17728;DHT22;8984;49.268;12.302;2023-05-02T12:55:29;21.50;99.90
17728;DHT22;8984;49.268;12.302;2023-05-02T12:58:04;21.70;99.90
17728;DHT22;8984;49.268;12.302;2023-05-02T13:00:36;22.00;99.90
17728;DHT22;8984;49.268;12.302;2023-05-02T13:03:06;21.90;99.90
17728;DHT22;8984;49.268;12.302;2023-05-02T13:05:37;21.90;99.90
17728;DHT22;8984;49.268;12.302;2023-05-02T13:08:19;21.70;99.90
17728;DHT22;8984;49.268;12.302;2023-05-02T13:10:50;21.50;99.90
17728;DHT22;8984;49.268;12.302;2023-05-02T13:13:19;21.20;99.90
17728;DHT22;8984;49.268;12.302;2023-05-02T13:15:49;21.40;99.90
17728;DHT22;8984;49.268;12.302;2023-05-02T13:18:17;21.50;99.90
17728;DHT22;8984;49.268;12.302;2023-05-02T13:20:49;21.30;99.90
17728;DHT22;8984;49.268;12.302;2023-05-02T13:23:26;21.40;99.90
17728;DHT22;8984;49.268;12.302;2023-05-02T13:25:53;21.20;99.90
17728;DHT22;8984;49.268;12.302;2023-05-02T13:28:22;21.40;99.90
17728;DHT22;8984;49.268;12.302;2023-05-02T13:30:52;21.50;99.90
17728;DHT22;8984;49.268;12.302;2023-05-02T13:33:20;21.70;99.90
17728;DHT22;8984;49.268;12.302;2023-05-02T13:35:52;21.70;99.90
17728;DHT22;8984;49.268;12.302;2023-05-02T13:38:28;21.90;99.90
17728;DHT22;8984;49.268;12.302;2023-05-02T13:41:04;21.60;99.90
17728;DHT22;8984;49.268;12.302;2023-05-02T13:43:33;21.90;99.90
17728;DHT22;8984;49.268;12.302;2023-05-02T13:46:29;22.10;99.90
17728;DHT22;8984;49.268;12.302;2023-05-02T13:49:00;22.10;99.90
17728;DHT22;8984;49.268;12.302;2023-05-02T13:51:28;22.10;99.90
17728;DHT22;8984;49.268;12.302;2023-05-02T13:53:55;22.10;99.90
17728;DHT22;8984;49.268;12.302;2023-05-02T13:56:22;21.90;99.90
17728;DHT22;8984;49.268;12.302;2023-05-02T13:58:49;22.20;99.90
17728;DHT22;8984;49.268;12.302;2023-05-02T14:01:16;22.40;99.90
17728;DHT22;8984;49.268;12.302;2023-05-02T14:03:44;22.30;99.90
17728;DHT22;8984;49.268;12.302;2023-05-02T14:06:11;22.30;99.90
17728;DHT22;8984;49.268;12.302;2023-05-02T14:08:38;22.20;99.10
17728;DHT22;8984;49.268;12.302;2023-05-02T14:11:04;21.60;99.90
17728;DHT22;8984;49.268;12.302;2023-05-02T14:13:31;22.10;99.90
17728;DHT22;8984;49.268;12.302;2023-05-02T14:15:58;22.40;99.30
17728;DHT22;8984;49.268;12.302;2023-05-02T14:18:25;22.80;99.50
17728;DHT22;8984;49.268;12.302;2023-05-02T14:20:53;22.80;98.60
17728;DHT22;8984;49.268;12.302;2023-05-02T14:23:22;22.80;98.20
17728;DHT22;8984;49.268;12.302;2023-05-02T14:25:49;22.90;98.10
17728;DHT22;8984;49.268;12.302;2023-05-02T14:28:16;23.00;97.20
17728;DHT22;8984;49.268;12.302;2023-05-02T14:30:43;22.90;96.80
17728;DHT22;8984;49.268;12.302;2023-05-02T14:33:09;22.90;96.90
17728;DHT22;8984;49.268;12.302;2023-05-02T14:35:36;23.10;97.10
17728;DHT22;8984;49.268;12.302;2023-05-02T14:38:04;23.00;97.40
17728;DHT22;8984;49.268;12.302;2023-05-02T14:40:31;23.30;96.90
17728;DHT22;8984;49.268;12.302;2023-05-02T14:42:58;23.40;96.00
17728;DHT22;8984;49.268;12.302;2023-05-02T14:45:25;23.10;95.50
17728;DHT22;8984;49.268;12.302;2023-05-02T14:47:52;22.70;95.70
17728;DHT22;8984;49.268;12.302;2023-05-02T14:50:20;22.50;96.40
17728;DHT22;8984;49.268;12.302;2023-05-02T14:52:47;22.20;96.60
17728;DHT22;8984;49.268;12.302;2023-05-02T14:55:15;21.90;97.10
17728;DHT22;8984;49.268;12.302;2023-05-02T14:57:43;21.80;97.10
17728;DHT22;8984;49.268;12.302;2023-05-02T15:00:11;21.50;97.90
17728;DHT22;8984;49.268;12.302;2023-05-02T15:02:38;21.40;98.50
17728;DHT22;8984;49.268;12.302;2023-05-02T15:05:06;20.90;98.90
17728;DHT22;8984;49.268;12.302;2023-05-02T15:07:36;20.30;99.90
17728;DHT22;8984;49.268;12.302;2023-05-02T15:10:04;19.20;99.90
17728;DHT22;8984;49.268;12.302;2023-05-02T15:12:32;19.10;99.90
17728;DHT22;8984;49.268;12.302;2023-05-02T15:14:59;18.90;99.90
17728;DHT22;8984;49.268;12.302;2023-05-02T15:17:26;18.90;99.90
17728;DHT22;8984;49.268;12.302;2023-05-02T15:19:53;18.80;99.90
17728;DHT22;8984;49.268;12.302;2023-05-02T15:22:20;18.50;99.90
17728;DHT22;8984;49.268;12.302;2023-05-02T15:24:48;18.30;99.90
17728;DHT22;8984;49.268;12.302;2023-05-02T15:27:15;18.40;99.90
17728;DHT22;8984;49.268;12.302;2023-05-02T15:29:43;18.20;99.90
17728;DHT22;8984;49.268;12.302;2023-05-02T15:32:10;18.00;99.90
17728;DHT22;8984;49.268;12.302;2023-05-02T15:34:37;18.00;99.90
17728;DHT22;8984;49.268;12.302;2023-05-02T15:37:03;18.00;99.90
17728;DHT22;8984;49.268;12.302;2023-05-02T15:39:31;18.00;99.90
17728;DHT22;8984;49.268;12.302;2023-05-02T15:41:57;17.90;99.90
17728;DHT22;8984;49.268;12.302;2023-05-02T15:44:29;18.10;99.90
17728;DHT22;8984;49.268;12.302;2023-05-02T15:46:57;18.00;99.90
17728;DHT22;8984;49.268;12.302;2023-05-02T15:49:24;18.00;99.90
17728;DHT22;8984;49.268;12.302;2023-05-02T15:51:56;18.10;99.90
17728;DHT22;8984;49.268;12.302;2023-05-02T15:54:23;18.20;99.90
17728;DHT22;8984;49.268;12.302;2023-05-02T15:56:49;18.20;99.90
17728;DHT22;8984;49.268;12.302;2023-05-02T15:59:16;18.00;99.90
17728;DHT22;8984;49.268;12.302;2023-05-02T16:01:43;18.10;99.90
17728;DHT22;8984;49.268;12.302;2023-05-02T16:04:11;18.10;99.90
17728;DHT22;8984;49.268;12.302;2023-05-02T16:06:38;18.10;99.90
17728;DHT22;8984;49.268;12.302;2023-05-02T16:09:06;18.00;99.90
17728;DHT22;8984;49.268;12.302;2023-05-02T16:11:33;18.00;99.90
17728;DHT22;8984;49.268;12.302;2023-05-02T16:14:00;17.90;99.90
17728;DHT22;8984;49.268;12.302;2023-05-02T16:16:27;18.00;99.90
17728;DHT22;8984;49.268;12.302;2023-05-02T16:18:53;18.10;99.90
17728;DHT22;8984;49.268;12.302;2023-05-02T16:21:22;18.20;99.90
17728;DHT22;8984;49.268;12.302;2023-05-02T16:23:48;18.30;99.90